Time;durP1;ratioP1;P1;durP2;ratioP2;P2;SDS_P1;SDS_P2;PMS_P1;PMS_P2;Temp;Humidity;BMP_temperature;BMP_pressure;BME280_temperature;BME280_humidity;BME280_pressure;Samples;Min_cycle;Max_cycle;Signal;HPM_P1;HPM_P2
2021/09/14 00:00:14;;;;;;;12.05;10.38;;;;;;;21.20;37.29;99484.28;5094166;28;20110;-80
2021/09/14 00:02:40;;;;;;;11.57;9.68;;;;;;;20.51;37.52;99379.19;5092694;28;20024;-79
2021/09/14 00:05:06;;;;;;;12.63;8.98;;;;;;;20.76;37.45;99416.28;5092786;28;20031;-80
2021/09/14 00:07:31;;;;;;;12.07;9.10;;;;;;;21.11;37.50;99472.34;5094082;28;20508;-80
2021/09/14 00:09:57;;;;;;;11.48;8.43;;;;;;;20.81;37.51;99433.28;5093890;28;20039;-79
2021/09/14 00:12:22;;;;;;;11.02;8.68;;;;;;;20.71;37.65;99425.06;5093811;28;20024;-80
2021/09/14 00:14:48;;;;;;;24.27;14.13;;;;;;;20.93;37.57;99455.47;5093944;28;20031;-79
2021/09/14 00:17:14;;;;;;;12.45;8.93;;;;;;;20.54;37.67;99389.41;5092708;28;20125;-80
2021/09/14 00:19:39;;;;;;;14.45;11.88;;;;;;;20.74;37.76;99429.94;5092710;28;20492;-80
2021/09/14 00:22:05;;;;;;;14.95;10.45;;;;;;;21.02;37.61;99480.00;5093905;28;20024;-80
2021/09/14 00:24:30;;;;;;;11.25;9.43;;;;;;;20.66;37.79;99430.34;5093723;28;20500;-74
2021/09/14 00:26:56;;;;;;;13.15;10.05;;;;;;;20.93;38.00;99481.50;5093550;28;20099;-76
2021/09/14 00:29:21;;;;;;;12.75;8.73;;;;;;;20.89;37.85;99491.91;5093640;28;20028;-76
2021/09/14 00:31:46;;;;;;;11.00;8.60;;;;;;;20.47;38.00;99426.31;5093636;28;20681;-75
2021/09/14 00:34:12;;;;;;;9.73;8.70;;;;;;;20.48;38.08;99433.31;5093636;28;20043;-75
2021/09/14 00:36:37;;;;;;;11.55;8.48;;;;;;;20.54;38.09;99435.81;5093441;28;20067;-76
2021/09/14 00:39:02;;;;;;;11.45;8.57;;;;;;;20.47;38.10;99429.81;5093563;28;20024;-75
2021/09/14 00:41:28;;;;;;;12.50;8.05;;;;;;;20.66;38.32;99475.16;5093789;28;20483;-76
2021/09/14 00:43:55;;;;;;;14.80;8.80;;;;;;;20.69;38.49;99480.84;5091950;28;20062;-74
2021/09/14 00:46:20;;;;;;;9.10;8.20;;;;;;;20.67;38.31;99482.97;5093206;28;20020;-75
2021/09/14 00:48:46;;;;;;;12.32;8.82;;;;;;;20.58;38.61;99485.25;5093260;28;20028;-75
2021/09/14 00:51:11;;;;;;;10.02;8.30;;;;;;;20.34;38.44;99454.25;5093253;28;20054;-75
2021/09/14 00:53:37;;;;;;;11.38;7.95;;;;;;;20.52;38.58;99474.69;5093398;28;20103;-75
2021/09/14 00:56:02;;;;;;;9.40;8.23;;;;;;;20.53;38.74;99482.47;5093043;28;20032;-75
2021/09/14 00:58:30;;;;;;;10.38;9.13;;;;;;;20.09;38.68;99411.75;5091753;28;20088;-74
2021/09/14 01:00:56;;;;;;;11.27;8.57;;;;;;;20.52;38.67;99480.03;5093101;28;20081;-75
2021/09/14 01:03:21;;;;;;;9.43;8.10;;;;;;;20.16;38.79;99425.00;5093205;28;20103;-75
2021/09/14 01:05:46;;;;;;;10.68;8.40;;;;;;;20.02;38.81;99407.59;5092932;28;20416;-75
2021/09/14 01:08:12;;;;;;;9.77;7.80;;;;;;;20.39;38.91;99475.81;5093086;28;20056;-76
2021/09/14 01:10:38;;;;;;;9.73;7.75;;;;;;;20.34;38.89;99464.97;5092688;28;20024;-75
2021/09/14 01:13:03;;;;;;;12.05;8.52;;;;;;;20.07;39.04;99423.78;5091310;28;20031;-76
2021/09/14 01:15:29;;;;;;;11.43;8.23;;;;;;;20.28;39.08;99468.63;5093054;28;20125;-75
2021/09/14 01:17:54;;;;;;;11.43;8.52;;;;;;;20.13;39.18;99463.00;5092609;28;20079;-76
2021/09/14 01:20:20;;;;;;;13.55;9.00;;;;;;;20.14;39.34;99475.34;5092679;28;20023;-75
2021/09/14 01:22:45;;;;;;;12.75;8.32;;;;;;;19.99;39.36;99454.44;5092474;28;20516;-75
2021/09/14 01:25:20;;;;;;;11.88;8.60;;;;;;;19.85;39.34;99427.13;5092498;28;20051;-75
2021/09/14 01:27:46;;;;;;;13.48;8.65;;;;;;;19.98;39.22;99448.25;5092285;28;20020;-75
2021/09/14 01:30:13;;;;;;;14.65;9.15;;;;;;;20.12;39.35;99478.28;5092695;28;20024;-76
2021/09/14 01:32:43;;;;;;;11.00;8.48;;;;;;;19.64;39.38;99395.69;5092569;28;20413;-75
2021/09/14 01:35:20;;;;;;;11.35;8.90;;;;;;;20.07;39.37;99467.47;5092637;28;20035;-76
2021/09/14 01:37:47;;;;;;;11.77;8.52;;;;;;;19.70;39.56;99418.00;5092307;28;20024;-75
2021/09/14 01:40:13;;;;;;;11.45;8.15;;;;;;;20.07;39.50;99464.78;5092304;28;20028;-75
2021/09/14 01:42:39;;;;;;;10.73;8.80;;;;;;;19.63;39.57;99408.25;5092491;28;20541;-75
2021/09/14 01:45:06;;;;;;;10.30;8.68;;;;;;;19.85;39.69;99437.84;5090956;28;20111;-75
2021/09/14 01:47:31;;;;;;;14.02;9.48;;;;;;;19.80;39.67;99427.03;5092444;28;20103;-75
2021/09/14 01:49:56;;;;;;;11.18;8.95;;;;;;;19.41;39.73;99351.06;5092285;28;20125;-75
2021/09/14 01:52:22;;;;;;;12.85;9.60;;;;;;;20.13;39.71;99468.38;5092110;28;20512;-75
2021/09/14 01:54:50;;;;;;;11.57;8.48;;;;;;;19.48;39.60;99353.56;5092100;28;20031;-75
2021/09/14 01:57:19;;;;;;;12.40;9.20;;;;;;;19.88;39.80;99407.09;5092081;28;20048;-75
2021/09/14 01:59:45;;;;;;;9.70;8.70;;;;;;;20.18;39.59;99455.88;5092200;28;20510;-75
2021/09/14 02:04:54;;;;;;;11.35;9.43;;;;;;;20.34;39.60;99464.16;5091948;28;20512;-75
2021/09/14 02:07:35;;;;;;;12.15;9.10;;;;;;;20.33;39.52;99460.66;5091892;28;20027;-76
2021/09/14 02:58:57;;;;;;;10.82;9.18;;;;;;;20.34;39.98;99472.22;5029075;28;20037;-80
2021/09/14 03:01:23;;;;;;;12.57;8.98;;;;;;;20.06;39.90;99427.47;5029091;28;20034;-80
2021/09/14 03:03:49;;;;;;;11.60;9.07;;;;;;;20.45;39.94;99474.84;5062824;28;20497;-79
2021/09/14 03:06:18;;;;;;;10.80;9.70;;;;;;;20.48;39.82;99489.63;5091148;28;20024;-79
2021/09/14 03:08:44;;;;;;;10.00;9.00;;;;;;;20.21;39.85;99441.16;5090909;28;20031;-80
2021/09/14 03:11:12;;;;;;;13.65;9.63;;;;;;;20.49;39.84;99481.34;5089895;28;20024;-80
2021/09/14 03:13:39;;;;;;;15.35;10.43;;;;;;;20.50;39.71;99482.97;5089862;28;20028;-80
2021/09/14 03:16:06;;;;;;;12.77;9.50;;;;;;;20.49;39.90;99486.72;5090985;28;20052;-81
2021/09/14 03:18:31;;;;;;;9.68;8.77;;;;;;;20.50;39.89;99482.97;5091085;28;20064;-80
2021/09/14 03:20:57;;;;;;;11.98;10.10;;;;;;;20.52;39.81;99482.72;5091075;28;20051;-80
2021/09/14 03:23:22;;;;;;;16.58;10.60;;;;;;;20.56;39.80;99486.53;5089778;28;20540;-80
2021/09/14 03:25:48;;;;;;;13.05;10.05;;;;;;;20.23;39.81;99442.53;5091110;28;20024;-80
2021/09/14 03:28:13;;;;;;;15.10;10.43;;;;;;;20.17;39.72;99427.44;5091142;28;20031;-80
2021/09/14 03:30:39;;;;;;;12.27;9.52;;;;;;;20.15;39.89;99432.22;5091045;28;20020;-80
2021/09/14 03:33:04;;;;;;;12.35;9.90;;;;;;;20.43;39.72;99462.72;5091024;28;20028;-80
2021/09/14 03:35:30;;;;;;;17.23;10.93;;;;;;;20.60;39.62;99493.84;5091016;28;20027;-79
2021/09/14 03:37:56;;;;;;;15.25;10.55;;;;;;;20.62;39.81;99486.38;5090860;28;20448;-80
2021/09/14 03:40:21;;;;;;;13.63;9.77;;;;;;;20.63;39.82;99487.19;5090912;28;20028;-80
2021/09/14 03:42:47;;;;;;;18.52;11.32;;;;;;;20.57;39.60;99480.94;5089667;28;20028;-80
2021/09/14 03:45:12;;;;;;;15.25;10.68;;;;;;;20.66;39.90;99493.94;5090746;28;20115;-80
2021/09/14 03:47:38;;;;;;;15.75;10.50;;;;;;;20.63;39.90;99487.19;5090823;28;20156;-80
2021/09/14 03:50:04;;;;;;;16.38;10.52;;;;;;;20.60;40.03;99490.38;5090823;28;20408;-80
2021/09/14 03:52:29;;;;;;;15.13;10.30;;;;;;;20.11;40.16;99412.31;5092770;28;20105;-79
2021/09/14 03:54:55;;;;;;;17.08;10.35;;;;;;;20.42;40.25;99459.25;5094505;28;20032;-80
2021/09/14 03:57:20;;;;;;;12.82;10.52;;;;;;;20.53;40.40;99492.41;5094281;28;20495;-80
2021/09/14 03:59:46;;;;;;;14.48;11.20;;;;;;;20.65;40.29;99495.00;5094310;28;20062;-79
2021/09/14 04:10:03;;;;;;;14.02;10.55;;;;;;;20.53;39.68;99462.88;5094231;28;20032;-79
2021/09/14 04:12:29;;;;;;;13.60;10.18;;;;;;;20.76;39.74;99515.56;5094100;28;20039;-80
2021/09/14 04:14:55;;;;;;;12.13;10.55;;;;;;;20.34;39.72;99445.41;5094042;28;20416;-80
2021/09/14 04:17:20;;;;;;;12.00;9.88;;;;;;;20.59;39.65;99500.28;5092351;28;20064;-79
2021/09/14 04:19:46;;;;;;;14.40;10.38;;;;;;;20.44;39.81;99483.94;5094129;28;20502;-80
2021/09/14 04:22:11;;;;;;;12.93;10.77;;;;;;;20.56;39.78;99494.59;5092610;28;20024;-80
2021/09/14 04:24:37;;;;;;;19.08;11.43;;;;;;;20.37;39.61;99461.00;5092557;28;20040;-75
2021/09/14 04:27:02;;;;;;;14.30;9.13;;;;;;;20.76;39.82;99527.09;5092415;28;20105;-76
2021/09/14 04:29:28;;;;;;;15.50;10.68;;;;;;;20.69;39.66;99506.84;5093859;28;20024;-75
2021/09/14 04:31:53;;;;;;;15.00;10.93;;;;;;;20.79;39.53;99529.28;5093749;28;20028;-75
2021/09/14 04:34:19;;;;;;;14.02;9.95;;;;;;;20.63;39.83;99514.00;5092422;28;20063;-75
2021/09/14 04:36:44;;;;;;;13.82;11.00;;;;;;;20.40;39.75;99465.91;5093281;28;20016;-74
2021/09/14 04:39:10;;;;;;;16.85;10.43;;;;;;;20.62;39.85;99509.72;5093354;28;20560;-75
2021/09/14 04:41:35;;;;;;;14.90;10.88;;;;;;;20.50;39.67;99487.53;5092064;28;20028;-74
2021/09/14 04:44:00;;;;;;;16.67;10.25;;;;;;;20.43;39.58;99457.38;5093382;28;20024;-75
2021/09/14 04:46:26;;;;;;;14.95;10.00;;;;;;;20.67;39.56;99490.19;5093499;28;20099;-75
2021/09/14 04:48:51;;;;;;;15.07;10.70;;;;;;;20.94;39.62;99532.25;5093404;28;20105;-75
2021/09/14 04:51:17;;;;;;;12.45;9.43;;;;;;;20.99;39.28;99534.19;5093195;28;20051;-75
2021/09/14 04:53:42;;;;;;;13.05;9.68;;;;;;;20.80;39.43;99497.91;5092000;28;20124;-75
2021/09/14 04:56:07;;;;;;;13.25;10.35;;;;;;;21.06;39.35;99534.00;5093152;28;20485;-76
2021/09/14 04:58:36;;;;;;;14.30;10.52;;;;;;;20.82;39.38;99496.63;5091907;28;20038;-76
2021/09/14 05:01:01;;;;;;;14.55;10.43;;;;;;;21.16;39.27;99539.53;5093030;28;20394;-75
2021/09/14 05:03:27;;;;;;;17.38;10.30;;;;;;;20.76;39.24;99478.81;5092584;28;20031;-76
2021/09/14 05:05:53;;;;;;;11.95;10.18;;;;;;;21.18;39.07;99542.78;5092853;28;20020;-75
2021/09/14 05:08:19;;;;;;;15.07;11.27;;;;;;;21.13;39.10;99550.75;5092933;28;20039;-75
2021/09/14 05:10:44;;;;;;;14.90;10.30;;;;;;;21.14;38.96;99539.78;5092700;28;20373;-76
2021/09/14 05:13:09;;;;;;;13.15;10.85;;;;;;;20.98;39.17;99511.09;5092957;28;20020;-75
2021/09/14 05:15:35;;;;;;;13.02;10.50;;;;;;;21.23;39.30;99551.75;5092568;28;20038;-74
2021/09/14 05:18:09;;;;;;;14.02;10.35;;;;;;;20.73;39.33;99465.88;5092450;28;20497;-74
2021/09/14 05:20:34;;;;;;;13.30;10.13;;;;;;;21.13;39.02;99524.72;5091383;28;20064;-74
2021/09/14 05:23:10;;;;;;;13.45;9.73;;;;;;;21.13;38.92;99513.16;5092477;28;20054;-73
2021/09/14 05:25:36;;;;;;;10.25;9.13;;;;;;;21.42;38.83;99554.16;5092471;28;20476;-74
2021/09/14 05:28:01;;;;;;;15.93;9.82;;;;;;;21.45;38.72;99553.66;5092317;28;20020;-76
2021/09/14 05:30:27;;;;;;;14.43;9.93;;;;;;;21.55;38.61;99565.38;5092382;28;20498;-76
2021/09/14 05:32:53;;;;;;;13.65;10.50;;;;;;;21.18;38.41;99491.75;5092245;28;20024;-75
2021/09/14 05:35:21;;;;;;;13.15;9.75;;;;;;;21.52;38.69;99532.78;5090327;28;20024;-76
2021/09/14 05:37:47;;;;;;;12.68;9.40;;;;;;;21.78;38.27;99564.31;5082278;28;20031;-74
2021/09/14 05:40:13;;;;;;;15.50;8.98;;;;;;;21.84;38.21;99573.25;5072508;28;20531;-75
2021/09/14 05:42:38;;;;;;;12.02;8.75;;;;;;;21.67;37.83;99537.56;5071244;28;20099;-75
2021/09/14 05:45:04;;;;;;;12.20;9.65;;;;;;;21.91;37.77;99567.69;5070948;28;20104;-76
2021/09/14 05:47:30;;;;;;;10.25;8.98;;;;;;;21.55;38.00;99508.09;5070945;28;20012;-76
2021/09/14 05:49:58;;;;;;;11.15;9.38;;;;;;;22.02;37.80;99572.91;5071649;28;20055;-76
2021/09/14 05:52:23;;;;;;;9.65;8.65;;;;;;;21.98;37.86;99552.97;5071672;28;20408;-77
2021/09/14 05:54:49;;;;;;;12.30;10.27;;;;;;;21.63;37.94;99493.44;5071327;28;20027;-76
2021/09/14 05:57:14;;;;;;;10.65;9.05;;;;;;;22.25;38.09;99587.97;5071416;28;20044;-76
2021/09/14 05:59:39;;;;;;;11.43;9.40;;;;;;;22.02;37.94;99540.66;5071710;28;20021;-75
2021/09/14 06:02:05;;;;;;;11.68;9.27;;;;;;;22.13;37.75;99561.22;5070043;28;20047;-76
2021/09/14 06:04:31;;;;;;;9.70;8.65;;;;;;;22.01;37.72;99540.91;5071329;28;20503;-76
2021/09/14 06:06:56;;;;;;;11.75;9.10;;;;;;;22.31;37.60;99583.50;5074544;28;20012;-76
2021/09/14 06:09:21;;;;;;;13.82;10.93;;;;;;;22.41;37.71;99600.56;5072950;28;20031;-81
2021/09/14 06:11:47;;;;;;;14.15;11.90;;;;;;;22.06;37.71;99528.34;5073239;28;20504;-80
2021/09/14 06:14:12;;;;;;;16.60;11.38;;;;;;;22.37;37.44;99577.09;5069915;28;20104;-78
2021/09/14 06:16:38;;;;;;;14.57;9.95;;;;;;;22.11;37.49;99541.03;5070124;28;20123;-80
2021/09/14 06:19:03;;;;;;;12.45;10.30;;;;;;;22.35;37.51;99577.34;5084590;28;20032;-78
2021/09/14 06:21:28;;;;;;;14.25;10.77;;;;;;;22.59;37.44;99604.75;5073549;28;20016;-80
2021/09/14 06:23:54;;;;;;;13.35;10.55;;;;;;;22.09;37.43;99514.41;5072871;28;20046;-74
2021/09/14 06:26:19;;;;;;;17.13;12.80;;;;;;;22.39;37.47;99572.28;5068322;28;20081;-74
2021/09/14 06:28:45;;;;;;;12.68;9.88;;;;;;;22.73;37.34;99608.66;5070263;28;20028;-74
2021/09/14 06:31:10;;;;;;;12.05;9.30;;;;;;;22.25;37.32;99526.13;5070030;28;20077;-74
2021/09/14 06:33:36;;;;;;;13.55;9.85;;;;;;;22.41;37.24;99537.88;5084640;28;20024;-75
2021/09/14 06:36:01;;;;;;;14.25;9.15;;;;;;;22.90;37.00;99613.13;5091050;28;20020;-76
2021/09/14 06:38:27;;;;;;;14.52;9.77;;;;;;;22.97;36.98;99613.72;5089687;28;20056;-75
2021/09/14 06:40:52;;;;;;;11.48;9.45;;;;;;;22.77;36.64;99577.47;5091191;28;20020;-76
2021/09/14 06:43:17;;;;;;;14.52;9.10;;;;;;;23.02;36.65;99608.38;5091082;28;20020;-75
2021/09/14 06:45:43;;;;;;;10.65;9.10;;;;;;;22.94;36.78;99590.00;5090768;28;20161;-75
2021/09/14 06:48:10;;;;;;;14.40;11.27;;;;;;;23.13;36.54;99615.50;5090707;28;20027;-75
2021/09/14 06:50:36;;;;;;;11.82;9.38;;;;;;;23.18;36.46;99623.59;5090675;28;20031;-76
2021/09/14 06:53:01;;;;;;;11.25;8.98;;;;;;;23.21;36.25;99625.78;5090726;28;20024;-74
2021/09/14 06:55:27;;;;;;;11.13;9.43;;;;;;;23.09;36.36;99603.63;5090820;28;20064;-75
2021/09/14 06:57:52;;;;;;;10.68;9.52;;;;;;;23.17;36.07;99611.22;5084646;28;20024;-75
2021/09/14 07:00:18;;;;;;;13.30;10.45;;;;;;;23.22;36.15;99627.41;5070508;28;20044;-75
2021/09/14 07:02:43;;;;;;;18.58;10.13;;;;;;;22.93;36.08;99559.56;5059726;28;20025;-74
2021/09/14 07:05:09;;;;;;;11.20;10.00;;;;;;;23.10;35.88;99573.72;5050508;28;20017;-75
2021/09/14 07:07:34;;;;;;;11.23;8.82;;;;;;;23.13;35.76;99567.00;5050511;28;20520;-75
2021/09/14 07:10:03;;;;;;;12.00;10.15;;;;;;;23.48;35.84;99614.09;5050586;28;20029;-75
2021/09/14 07:12:28;;;;;;;13.77;9.38;;;;;;;23.47;35.76;99594.44;5050017;28;20021;-75
2021/09/14 07:14:54;;;;;;;14.07;11.13;;;;;;;23.79;35.68;99625.91;5049040;28;20075;-76
2021/09/14 07:17:19;;;;;;;12.25;9.18;;;;;;;23.38;35.46;99560.97;5050399;28;20041;-76
2021/09/14 07:19:44;;;;;;;10.48;8.70;;;;;;;23.55;35.42;99587.75;5060425;28;20064;-75
2021/09/14 07:22:10;;;;;;;10.60;8.95;;;;;;;23.92;34.98;99636.22;5069179;28;20031;-75
2021/09/14 07:24:35;;;;;;;12.40;8.90;;;;;;;23.81;34.98;99607.59;5066492;28;20098;-81
2021/09/14 07:27:01;;;;;;;11.50;9.43;;;;;;;23.57;34.87;99566.75;5053530;28;20021;-81
2021/09/14 07:29:28;;;;;;;12.63;8.50;;;;;;;23.36;34.69;99526.19;5054599;28;20023;-81
2021/09/14 07:31:53;;;;;;;12.75;8.15;;;;;;;24.04;34.46;99615.22;5054485;28;20056;-81
2021/09/14 07:34:19;;;;;;;12.75;8.50;;;;;;;24.08;34.44;99625.22;5054220;28;20485;-81
2021/09/14 07:36:44;;;;;;;10.20;8.23;;;;;;;24.24;34.03;99630.66;5052801;28;20381;-81
2021/09/14 07:39:09;;;;;;;12.38;9.10;;;;;;;23.92;34.16;99571.50;5053012;28;20086;-81
2021/09/14 07:41:35;;;;;;;12.75;8.50;;;;;;;24.40;33.94;99632.38;5054331;28;20481;-81
2021/09/14 07:44:00;;;;;;;13.70;8.65;;;;;;;24.38;33.74;99626.41;5054162;28;20024;-81
2021/09/14 07:46:26;;;;;;;10.77;8.25;;;;;;;24.19;33.54;99590.19;5053893;28;20493;-81
2021/09/14 07:48:51;;;;;;;11.13;7.75;;;;;;;24.55;33.75;99623.50;5053942;28;20020;-81
2021/09/14 07:51:17;;;;;;;10.70;7.85;;;;;;;24.69;33.26;99641.63;5053807;28;20033;-81
2021/09/14 07:53:43;;;;;;;10.38;8.20;;;;;;;24.79;32.85;99635.41;5054011;28;20052;-80
2021/09/14 07:56:08;;;;;;;10.38;7.22;;;;;;;24.67;32.78;99618.66;5053820;28;20094;-81
2021/09/14 07:58:33;;;;;;;9.55;7.43;;;;;;;24.56;32.91;99587.34;5053748;28;20029;-80
2021/09/14 08:00:59;;;;;;;15.20;8.18;;;;;;;24.70;32.37;99599.22;5053625;28;20021;-81
2021/09/14 08:03:24;;;;;;;9.73;7.57;;;;;;;25.06;32.34;99632.47;5053653;28;20028;-81
2021/09/14 08:05:50;;;;;;;11.38;7.50;;;;;;;24.77;32.20;99590.84;5053821;28;20036;-81
2021/09/14 08:08:15;;;;;;;11.07;7.80;;;;;;;25.06;32.11;99618.16;5053715;28;20025;-81
2021/09/14 08:10:41;;;;;;;11.38;7.43;;;;;;;24.75;31.77;99556.03;5053485;28;20025;-81
2021/09/14 08:13:06;;;;;;;15.45;8.13;;;;;;;25.07;31.72;99593.56;5052370;28;20032;-82
2021/09/14 08:15:32;;;;;;;13.98;7.47;;;;;;;25.42;31.38;99629.78;5053600;28;20021;-80
2021/09/14 08:17:59;;;;;;;12.95;8.23;;;;;;;25.26;31.31;99591.13;5053470;28;20061;-80
2021/09/14 08:20:24;;;;;;;12.38;8.23;;;;;;;25.61;30.69;99631.63;5052130;28;20029;-81
2021/09/14 08:22:50;;;;;;;13.65;8.63;;;;;;;25.71;30.44;99630.00;5053358;28;20096;-81
2021/09/14 08:25:15;;;;;;;11.23;8.27;;;;;;;25.61;30.29;99601.06;5052229;28;20492;-82
2021/09/14 08:27:41;;;;;;;12.38;7.53;;;;;;;25.96;30.02;99624.50;5051927;28;20484;-80
2021/09/14 08:30:08;;;;;;;8.93;6.85;;;;;;;25.98;29.40;99611.50;5053368;28;20024;-80
2021/09/14 08:32:33;;;;;;;10.00;7.30;;;;;;;25.53;29.77;99520.53;5053487;28;20067;-81
2021/09/14 08:34:59;;;;;;;11.23;7.35;;;;;;;26.30;29.79;99621.91;5053098;28;20056;-81
2021/09/14 08:37:24;;;;;;;10.88;6.90;;;;;;;26.05;29.07;99570.63;5052368;28;20024;-81
2021/09/14 08:39:50;;;;;;;14.90;10.10;;;;;;;26.34;29.52;99578.88;5053333;28;20489;-82
2021/09/14 08:42:16;;;;;;;12.60;7.45;;;;;;;26.68;29.03;99622.25;5053110;28;20021;-80
2021/09/14 08:44:42;;;;;;;14.93;8.25;;;;;;;26.78;28.91;99625.72;5053044;28;20203;-80
2021/09/14 08:47:09;;;;;;;14.02;9.70;;;;;;;26.49;28.54;99546.28;5051616;28;20025;-80
2021/09/14 08:49:35;;;;;;;11.20;9.32;;;;;;;26.76;28.36;99562.06;5052803;28;20084;-81
2021/09/14 08:52:01;;;;;;;15.18;10.07;;;;;;;27.23;28.25;99619.13;5052909;28;20025;-81
2021/09/14 08:54:26;;;;;;;13.90;10.93;;;;;;;27.39;27.83;99610.81;5052562;28;20021;-81
2021/09/14 08:56:52;;;;;;;12.55;9.25;;;;;;;27.03;27.74;99531.78;5052647;28;20049;-81
2021/09/14 08:59:29;;;;;;;12.82;9.05;;;;;;;27.71;27.51;99611.06;5052951;28;20017;-80
2021/09/14 09:02:00;;;;;;;11.98;8.43;;;;;;;27.82;27.39;99604.44;5052563;28;20108;-80
2021/09/14 09:04:25;;;;;;;11.98;7.78;;;;;;;27.95;26.71;99618.38;5051446;28;20572;-81
2021/09/14 09:06:51;;;;;;;15.50;8.55;;;;;;;27.57;26.34;99542.31;5052835;28;20120;-81
2021/09/14 09:09:19;;;;;;;9.05;8.10;;;;;;;27.84;26.52;99561.53;5052761;28;20074;-81
2021/09/14 09:12:05;;;;;;;15.70;7.80;;;;;;;28.23;25.78;99594.94;5051116;28;20029;-81
2021/09/14 09:14:41;;;;;;;13.40;8.35;;;;;;;28.45;26.33;99609.59;5051235;28;20481;-81
2021/09/14 09:17:13;;;;;;;10.63;7.40;;;;;;;28.45;25.48;99578.91;5052569;28;20389;-81
2021/09/14 09:19:40;;;;;;;11.45;6.88;;;;;;;28.52;25.05;99568.47;5051183;28;20024;-81
2021/09/14 09:22:11;;;;;;;10.82;6.90;;;;;;;28.91;24.89;99598.03;5052584;28;20055;-81
2021/09/14 09:24:43;;;;;;;;;;;;;;;28.91;25.26;99595.31;5052543;28;20032;-76
2021/09/14 09:27:14;;;;;;;10.15;7.18;;;;;;;29.14;24.70;99595.50;5052937;28;20011;-75
2021/09/14 09:29:40;;;;;;;9.02;7.45;;;;;;;28.98;24.80;99557.69;5052133;28;20017;-76
2021/09/14 09:32:06;;;;;;;12.63;7.80;;;;;;;29.22;24.24;99568.44;5052270;28;20083;-76
2021/09/14 09:34:31;;;;;;;11.40;7.88;;;;;;;29.47;23.86;99582.69;5052108;28;20447;-79
2021/09/14 09:37:06;;;;;;;11.23;8.73;;;;;;;29.64;24.45;99578.25;5050580;28;20040;-82
2021/09/14 09:39:41;;;;;;;11.85;7.65;;;;;;;29.84;24.04;99593.38;5051922;28;20350;-79
2021/09/14 09:42:07;;;;;;;12.38;7.53;;;;;;;29.79;23.63;99560.81;5052066;28;20023;-81
2021/09/14 09:44:33;;;;;;;10.65;7.75;;;;;;;30.08;23.54;99579.56;5052098;28;20091;-80
2021/09/14 09:47:01;;;;;;;9.27;7.88;;;;;;;29.97;23.18;99556.34;5051737;28;20493;-80
2021/09/14 09:49:27;;;;;;;12.13;9.38;;;;;;;30.16;23.13;99553.50;5051837;28;20025;-81
2021/09/14 09:51:53;;;;;;;11.50;7.07;;;;;;;30.24;22.65;99533.72;5051415;28;20025;-80
2021/09/14 09:54:19;;;;;;;10.25;7.75;;;;;;;30.42;22.40;99530.00;5059923;28;20041;-79
2021/09/14 09:56:48;;;;;;;10.07;6.72;;;;;;;30.47;22.55;99512.72;5070233;28;20105;-81
2021/09/14 09:59:13;;;;;;;11.80;8.02;;;;;;;30.78;22.54;99538.16;5071496;28;20488;-80
2021/09/14 10:01:42;;;;;;;13.32;7.60;;;;;;;31.12;21.98;99574.91;5071653;28;20052;-80
2021/09/14 10:04:19;;;;;;;15.35;8.35;;;;;;;31.14;21.85;99559.84;5071377;28;20476;-80
2021/09/14 10:06:51;;;;;;;11.40;9.38;;;;;;;31.21;21.70;99570.31;5071230;28;20028;-78
2021/09/14 10:09:16;;;;;;;9.77;8.13;;;;;;;30.73;21.40;99515.66;5071121;28;20096;-80
2021/09/14 10:11:42;;;;;;;13.32;8.85;;;;;;;30.86;21.58;99515.59;5070062;28;20108;-80
2021/09/14 10:14:15;;;;;;;15.98;8.90;;;;;;;31.17;21.49;99552.97;5071271;28;20485;-80
2021/09/14 10:16:45;;;;;;;19.02;11.23;;;;;;;31.25;21.51;99527.69;5071320;28;20124;-81
2021/09/14 10:19:30;;;;;;;11.70;8.07;;;;;;;31.57;21.33;99553.78;5071346;28;20047;-80
2021/09/14 10:22:08;;;;;;;10.25;7.60;;;;;;;31.69;20.74;99555.91;5070071;28;20052;-83
2021/09/14 10:24:35;;;;;;;8.95;7.43;;;;;;;31.76;20.77;99540.69;5071234;28;20032;-73
2021/09/14 10:27:05;;;;;;;10.93;7.30;;;;;;;31.88;20.92;99554.53;5071131;28;20115;-75
2021/09/14 10:29:31;;;;;;;13.18;9.60;;;;;;;31.84;21.03;99509.88;5070036;28;20093;-74
2021/09/14 10:32:05;;;;;;;11.20;7.40;;;;;;;31.86;20.51;99496.72;5071116;28;20036;-76
2021/09/14 10:34:32;;;;;;;48.20;11.93;;;;;;;31.97;20.32;99499.97;5070740;28;20035;-75
2021/09/14 10:37:07;;;;;;;9.60;8.05;;;;;;;32.37;19.67;99541.59;5071070;28;20025;-75
2021/09/14 10:39:41;;;;;;;12.20;8.65;;;;;;;32.44;19.96;99536.44;5071295;28;20039;-74
2021/09/14 10:42:15;;;;;;;15.00;10.40;;;;;;;32.48;19.42;99537.41;5070936;28;20081;-75
2021/09/14 10:44:41;;;;;;;16.50;8.90;;;;;;;32.59;19.80;99532.41;5071012;28;20093;-75
2021/09/14 10:47:18;;;;;;;11.32;8.20;;;;;;;32.72;19.36;99547.84;5070642;28;20444;-73
2021/09/14 10:49:57;;;;;;;11.05;7.22;;;;;;;32.64;18.30;99501.38;5070747;28;20032;-75
2021/09/14 10:52:33;;;;;;;13.75;7.53;;;;;;;33.07;19.07;99534.09;5070916;28;20055;-81
2021/09/14 10:55:03;;;;;;;11.48;8.13;;;;;;;33.14;18.96;99516.06;5069585;28;20028;-81
2021/09/14 10:57:37;;;;;;;8.20;6.50;;;;;;;32.63;18.46;99434.94;5069657;28;20032;-81
2021/09/14 11:00:11;;;;;;;10.23;7.00;;;;;;;33.03;18.12;99524.94;5071132;28;20033;-79
2021/09/14 11:02:40;;;;;;;10.25;7.53;;;;;;;33.02;18.29;99502.25;5074785;28;20075;-82
2021/09/14 11:05:07;;;;;;;9.68;8.68;;;;;;;32.75;18.69;99431.56;5074903;28;20028;-81
2021/09/14 11:07:32;;;;;;;12.63;8.60;;;;;;;33.15;18.34;99476.63;5074934;28;20028;-81
2021/09/14 11:10:00;;;;;;;7.47;6.57;;;;;;;33.54;17.50;99517.69;5074811;28;20024;-81
2021/09/14 11:12:30;;;;;;;13.07;8.93;;;;;;;33.43;18.05;99492.59;5073299;28;20021;-81
2021/09/14 11:14:57;;;;;;;16.52;9.15;;;;;;;33.62;17.88;99517.63;5074757;28;20028;-81
2021/09/14 11:17:32;;;;;;;9.32;8.32;;;;;;;33.25;17.71;99453.53;5073014;28;20044;-81
2021/09/14 11:20:18;;;;;;;9.68;8.13;;;;;;;33.67;16.80;99514.69;5074507;28;20453;-80
2021/09/14 11:22:43;;;;;;;14.32;11.68;;;;;;;33.33;17.51;99477.34;5074633;28;20105;-82
2021/09/14 11:25:17;;;;;;;16.35;11.57;;;;;;;33.55;17.62;99503.66;5073274;28;20485;-75
2021/09/14 11:28:00;;;;;;;9.55;8.05;;;;;;;33.76;16.93;99504.47;5074296;28;20439;-74
2021/09/14 11:30:27;;;;;;;13.38;10.77;;;;;;;33.43;17.63;99446.88;5074319;28;20485;-74
2021/09/14 11:32:53;;;;;;;11.68;8.85;;;;;;;33.86;17.07;99492.38;5081359;28;20093;-74
2021/09/14 11:35:19;;;;;;;9.98;8.80;;;;;;;33.92;17.20;99491.03;5089595;28;20024;-74
2021/09/14 11:37:59;;;;;;;15.27;13.75;;;;;;;33.63;17.33;99433.56;5093192;28;20024;-73
2021/09/14 11:40:26;;;;;;;11.73;10.52;;;;;;;34.14;16.92;99498.09;5086074;28;20460;-81
2021/09/14 11:43:02;;;;;;;10.18;9.00;;;;;;;34.00;16.02;99472.91;5094175;28;20016;-81
2021/09/14 11:45:32;;;;;;;11.95;10.38;;;;;;;34.11;17.09;99483.13;5092611;28;20077;-81
2021/09/14 11:48:00;;;;;;;18.23;14.55;;;;;;;33.93;17.23;99461.69;5092882;28;20027;-80
2021/09/14 11:50:31;;;;;;;15.57;12.30;;;;;;;33.92;17.63;99484.75;5093799;28;20028;-80
2021/09/14 11:53:13;;;;;;;12.85;9.27;;;;;;;33.88;17.47;99481.06;5094534;28;20055;-80
2021/09/14 11:55:48;;;;;;;13.68;11.05;;;;;;;33.80;17.54;99486.25;5093996;28;20381;-80
2021/09/14 11:58:15;;;;;;;14.70;10.20;;;;;;;33.63;18.01;99486.38;5083708;28;20028;-80
2021/09/14 12:00:45;;;;;;;14.10;10.20;;;;;;;33.62;17.76;99484.78;5093121;28;20016;-81
2021/09/14 12:03:11;;;;;;;9.32;8.00;;;;;;;33.49;17.79;99480.34;5093729;28;20401;-81
2021/09/14 12:05:37;;;;;;;10.00;8.52;;;;;;;33.14;17.75;99424.97;5093206;28;20028;-82
2021/09/14 12:08:14;;;;;;;12.88;7.18;;;;;;;33.36;17.78;99467.69;5093513;28;20398;-79
2021/09/14 12:10:44;;;;;;;12.27;7.78;;;;;;;33.48;18.30;99468.59;5089152;28;20030;-80
2021/09/14 12:13:15;;;;;;;10.38;7.07;;;;;;;33.26;17.81;99446.94;5092871;28;20020;-81
2021/09/14 12:15:40;;;;;;;10.73;7.32;;;;;;;33.25;18.17;99459.03;5093204;28;20103;-81
2021/09/14 12:18:06;;;;;;;11.70;7.45;;;;;;;33.06;18.28;99464.09;5092109;28;20127;-81
2021/09/14 12:20:34;;;;;;;14.57;8.63;;;;;;;32.93;18.31;99465.13;5092925;28;20085;-80
2021/09/14 12:23:00;;;;;;;15.35;7.93;;;;;;;32.85;18.62;99459.38;5092676;28;20024;-81